createdAt,value
2023-05-24T00:00:26.323Z,98762.03
2023-05-24T00:03:31.201Z,98769.19
2023-05-24T00:06:35.229Z,98767.25
2023-05-24T00:09:40.091Z,98772.19
2023-05-24T00:12:44.011Z,98769.66
2023-05-24T00:15:47.535Z,98767.16
2023-05-24T00:18:52.359Z,98770.19
2023-05-24T00:21:56.165Z,98771.16
2023-05-24T00:25:00.943Z,98762.59
2023-05-24T00:28:04.891Z,98767.03
2023-05-24T00:31:08.634Z,98770.03
2023-05-24T00:34:12.322Z,98775.69
2023-05-24T00:37:16.043Z,98771.19
2023-05-24T00:40:21.238Z,98778.53
2023-05-24T00:43:26.613Z,98780.38
2023-05-24T00:46:31.589Z,98778.84
2023-05-24T00:49:36.199Z,98773.06
2023-05-24T00:52:40.444Z,98769.00
2023-05-24T00:55:45.568Z,98766.19
2023-05-24T00:58:50.624Z,98772.53
2023-05-24T01:01:55.629Z,98770.72
2023-05-24T01:05:00.165Z,98775.38
2023-05-24T01:08:11.994Z,98774.25
2023-05-24T01:11:27.690Z,98776.97
2023-05-24T01:14:39.475Z,98774.28
2023-05-24T01:17:53.254Z,98781.03
2023-05-24T01:21:07.921Z,98779.34
2023-05-24T01:24:19.804Z,98775.28
2023-05-24T01:27:25.879Z,98781.19
2023-05-24T01:30:30.136Z,98783.16
2023-05-24T01:33:34.245Z,98790.34
2023-05-24T01:36:37.670Z,98786.69
2023-05-24T01:39:41.998Z,98792.03
2023-05-24T01:42:50.597Z,98780.34
2023-05-24T01:46:04.585Z,98796.69
2023-05-24T01:49:18.256Z,98801.19
2023-05-24T01:52:25.411Z,98797.97
2023-05-24T01:55:30.180Z,98801.75
2023-05-24T01:58:37.859Z,98805.41
2023-05-24T02:01:42.093Z,98812.34
2023-05-24T02:04:45.781Z,98808.38
2023-05-24T02:07:49.378Z,98815.56
2023-05-24T02:10:53.243Z,98812.59
2023-05-24T02:13:58.117Z,98808.38
2023-05-24T02:17:02.998Z,98808.66
2023-05-24T02:20:08.065Z,98807.94
2023-05-24T02:23:11.570Z,98817.09
2023-05-24T02:26:15.046Z,98824.41
2023-05-24T02:29:19.906Z,98826.53
2023-05-24T02:32:23.398Z,98825.84
2023-05-24T02:35:27.183Z,98832.16
2023-05-24T02:38:32.019Z,98830.06
2023-05-24T02:41:35.337Z,98821.16
2023-05-24T02:44:40.423Z,98829.34
2023-05-24T02:47:43.992Z,98825.66
2023-05-24T02:50:47.604Z,98835.50
2023-05-24T02:53:51.055Z,98838.72
2023-05-24T02:56:56.784Z,98839.84
2023-05-24T03:00:02.584Z,98843.25
2023-05-24T03:03:08.983Z,98857.22
2023-05-24T03:06:14.224Z,98856.09
2023-05-24T03:09:19.226Z,98864.13
2023-05-24T03:12:23.342Z,98870.25
2023-05-24T03:15:29.004Z,98875.38
2023-05-24T03:18:32.497Z,98870.78
2023-05-24T03:21:36.293Z,98879.31
2023-05-24T03:24:40.296Z,98887.09
2023-05-24T03:27:44.551Z,98889.00
2023-05-24T03:30:50.698Z,98895.22
2023-05-24T03:33:55.536Z,98892.56
2023-05-24T03:36:59.517Z,98887.09
2023-05-24T03:40:04.883Z,98893.31
2023-05-24T03:43:20.542Z,98894.50
2023-05-24T03:46:35.139Z,98900.69
2023-05-24T03:49:38.956Z,98897.56
2023-05-24T03:52:43.874Z,98897.69
2023-05-24T03:55:47.505Z,98905.69
2023-05-24T03:58:52.487Z,98906.53
2023-05-24T04:01:57.760Z,98909.81
2023-05-24T04:05:01.883Z,98902.91
2023-05-24T04:08:05.789Z,98905.81
2023-05-24T04:11:09.507Z,98907.25
2023-05-24T04:14:14.267Z,98911.38
2023-05-24T04:17:19.541Z,98922.38
2023-05-24T04:20:31.340Z,98924.50
2023-05-24T04:23:35.059Z,98939.03
2023-05-24T04:26:38.877Z,98953.91
2023-05-24T04:29:43.410Z,98956.75
2023-05-24T04:32:48.851Z,98954.88
2023-05-24T04:35:53.400Z,98954.88
2023-05-24T04:39:02.996Z,98965.38
2023-05-24T04:42:09.984Z,98963.84
2023-05-24T04:45:13.778Z,98970.53
2023-05-24T04:48:19.736Z,98977.13
2023-05-24T04:51:23.659Z,98975.53
2023-05-24T04:54:27.687Z,98976.53
2023-05-24T04:57:31.291Z,98979.41
2023-05-24T05:00:37.383Z,98986.13
2023-05-24T05:03:43.412Z,98987.06
2023-05-24T05:06:48.393Z,98992.94
2023-05-24T05:09:52.112Z,98987.63
2023-05-24T05:12:55.733Z,98991.91
2023-05-24T05:15:59.385Z,98994.97
2023-05-24T05:19:06.336Z,99005.06
2023-05-24T05:22:12.306Z,99001.69
2023-05-24T05:25:15.986Z,99008.81
2023-05-24T05:28:19.661Z,99007.97
2023-05-24T05:31:23.561Z,99012.94
2023-05-24T05:34:28.681Z,99021.25
2023-05-24T05:37:32.302Z,99024.88
2023-05-24T05:40:36.044Z,99018.91
2023-05-24T05:43:40.606Z,99028.91
2023-05-24T05:46:46.558Z,99025.28
2023-05-24T05:49:51.683Z,99040.03
2023-05-24T05:52:55.765Z,99034.00
2023-05-24T05:55:59.438Z,99038.03
2023-05-24T05:59:03.427Z,99040.81
2023-05-24T06:02:08.795Z,99057.59
2023-05-24T06:05:14.611Z,99067.03
2023-05-24T06:08:19.623Z,99072.69
2023-05-24T06:11:23.902Z,99075.00
2023-05-24T06:14:27.724Z,99085.66
2023-05-24T06:17:31.224Z,99091.19
2023-05-24T06:20:37.086Z,99087.78
2023-05-24T06:23:40.792Z,99092.91
2023-05-24T06:26:44.605Z,99091.41
2023-05-24T06:29:49.333Z,99101.41
2023-05-24T06:32:53.178Z,99102.34
2023-05-24T06:35:58.179Z,99101.94
2023-05-24T06:39:01.795Z,99104.38
2023-05-24T06:42:06.105Z,99112.75
2023-05-24T06:45:14.286Z,99113.22
2023-05-24T06:48:18.126Z,99122.84
2023-05-24T06:51:23.221Z,99120.25
2023-05-24T06:54:26.858Z,99128.31
2023-05-24T06:57:30.452Z,99123.59
2023-05-24T07:00:34.345Z,99131.50
2023-05-24T07:03:38.589Z,99136.47
2023-05-24T07:06:43.718Z,99133.13
2023-05-24T07:09:47.662Z,99145.81
2023-05-24T07:12:51.480Z,99155.47
2023-05-24T07:15:55.114Z,99157.75
2023-05-24T07:19:00.362Z,99156.53
2023-05-24T07:22:06.645Z,99161.75
2023-05-24T07:25:11.134Z,99167.97
2023-05-24T07:28:18.364Z,99171.03
2023-05-24T07:31:23.102Z,99174.31
2023-05-24T07:34:30.065Z,99179.44
2023-05-24T07:37:36.617Z,99190.09
2023-05-24T07:40:40.430Z,99192.41
2023-05-24T07:43:44.297Z,99196.16
2023-05-24T07:46:48.280Z,99187.84
2023-05-24T07:49:52.002Z,99193.19
2023-05-24T07:52:57.861Z,99200.28
2023-05-24T07:56:01.765Z,99202.06
2023-05-24T07:59:05.408Z,99201.97
2023-05-24T08:02:11.808Z,99202.50
2023-05-24T08:05:15.427Z,99206.66
2023-05-24T08:08:20.585Z,99209.22
2023-05-24T08:11:24.404Z,99210.31
2023-05-24T08:14:27.856Z,99216.38
2023-05-24T08:17:32.107Z,99221.22
2023-05-24T08:20:36.813Z,99220.00
2023-05-24T08:23:41.755Z,99225.44
2023-05-24T08:26:45.401Z,99229.63
2023-05-24T08:29:48.878Z,99236.91
2023-05-24T08:32:52.523Z,99244.88
2023-05-24T08:35:56.066Z,99234.50
2023-05-24T08:39:00.948Z,99230.97
2023-05-24T08:42:09.681Z,99244.28
2023-05-24T08:45:15.554Z,99250.28
2023-05-24T08:48:21.042Z,99258.28
2023-05-24T08:51:27.476Z,99253.31
2023-05-24T08:54:32.845Z,99252.44
2023-05-24T08:57:40.098Z,99255.34
2023-05-24T09:00:43.847Z,99262.97
2023-05-24T09:03:48.821Z,99270.19
2023-05-24T09:06:54.219Z,99284.22
2023-05-24T09:10:05.468Z,99284.72
2023-05-24T09:13:10.283Z,99286.25
2023-05-24T09:16:14.129Z,99293.66
2023-05-24T09:19:18.338Z,99287.56
2023-05-24T09:22:27.382Z,99294.88
2023-05-24T09:25:32.474Z,99296.03
2023-05-24T09:28:36.426Z,99291.84
2023-05-24T09:31:48.305Z,99297.34
2023-05-24T09:34:54.863Z,99309.97
2023-05-24T09:38:00.110Z,99307.66
2023-05-24T09:41:06.646Z,99305.75
2023-05-24T09:44:19.188Z,99307.78
2023-05-24T09:47:39.015Z,99302.03
2023-05-24T09:51:05.720Z,99305.16
2023-05-24T09:54:10.498Z,99312.22
2023-05-24T09:57:30.181Z,99316.59
2023-05-24T10:00:43.237Z,99315.44
2023-05-24T10:03:54.471Z,99308.59
2023-05-24T10:06:58.540Z,99314.28
2023-05-24T10:10:02.963Z,99315.22
2023-05-24T10:13:09.077Z,99313.53
2023-05-24T10:16:13.020Z,99314.59
2023-05-24T10:19:17.181Z,99318.84
2023-05-24T10:22:23.733Z,99312.56
2023-05-24T10:25:29.332Z,99321.75
2023-05-24T10:28:37.266Z,99338.47
2023-05-24T10:31:43.493Z,99340.63
2023-05-24T10:34:49.202Z,99332.81
2023-05-24T10:37:52.719Z,99331.19
2023-05-24T10:40:56.610Z,99337.59
2023-05-24T10:44:09.788Z,99333.97
2023-05-24T10:47:15.656Z,99330.66
2023-05-24T10:50:20.363Z,99329.19
2023-05-24T10:53:27.477Z,99336.84
2023-05-24T10:56:31.321Z,99344.47
2023-05-24T10:59:41.311Z,99335.09
2023-05-24T11:02:44.805Z,99346.44
2023-05-24T11:05:55.565Z,99339.09
2023-05-24T11:09:02.431Z,99343.66
2023-05-24T11:12:09.255Z,99336.88
2023-05-24T11:15:14.661Z,99340.47
2023-05-24T11:18:20.598Z,99341.38
2023-05-24T11:21:24.372Z,99345.31
2023-05-24T11:24:30.421Z,99339.91
2023-05-24T11:27:35.490Z,99339.56
2023-05-24T11:30:42.854Z,99348.66
2023-05-24T11:33:46.702Z,99345.06
2023-05-24T11:36:50.670Z,99344.75
2023-05-24T11:39:54.537Z,99344.13
2023-05-24T11:43:01.873Z,99344.66
2023-05-24T11:46:07.442Z,99344.00
2023-05-24T11:49:14.944Z,99336.00
2023-05-24T11:52:18.980Z,99341.34
2023-05-24T11:55:26.013Z,99346.41
2023-05-24T11:58:39.383Z,99348.28
2023-05-24T12:01:44.959Z,99348.50
2023-05-24T12:04:48.598Z,99335.16
2023-05-24T12:08:04.882Z,99342.59
2023-05-24T12:11:08.768Z,99351.66
2023-05-24T12:14:18.263Z,99343.25
2023-05-24T12:17:23.255Z,99338.53
2023-05-24T12:20:29.832Z,99340.78
2023-05-24T12:23:33.437Z,99349.59
2023-05-24T12:26:38.135Z,99342.28
2023-05-24T12:29:42.628Z,99343.88
2023-05-24T12:32:48.419Z,99352.34
2023-05-24T12:35:51.993Z,99346.34
2023-05-24T12:38:58.696Z,99342.53
2023-05-24T12:42:02.892Z,99349.72
2023-05-24T12:45:07.385Z,99343.84
2023-05-24T12:48:12.571Z,99349.91
2023-05-24T12:51:15.997Z,99348.81
2023-05-24T12:54:21.177Z,99340.28
2023-05-24T12:57:24.669Z,99344.88
2023-05-24T13:00:30.561Z,99341.25
2023-05-24T13:03:37.709Z,99342.56
2023-05-24T13:06:41.156Z,99352.94
2023-05-24T13:09:44.640Z,99345.69
2023-05-24T13:12:48.295Z,99350.91
2023-05-24T13:15:52.205Z,99345.91
2023-05-24T13:18:57.141Z,99350.19
2023-05-24T13:22:00.622Z,99338.19
2023-05-24T13:25:04.733Z,99346.16
2023-05-24T13:28:08.511Z,99343.13
2023-05-24T13:31:12.267Z,99344.97
2023-05-24T13:34:18.927Z,99357.72
2023-05-24T13:37:22.958Z,99353.84
2023-05-24T13:40:26.603Z,99352.75
2023-05-24T13:43:30.691Z,99351.53
2023-05-24T13:46:36.817Z,99347.75
2023-05-24T13:49:42.433Z,99349.09
2023-05-24T13:52:46.163Z,99350.44
2023-05-24T13:55:50.006Z,99348.47
2023-05-24T13:58:53.827Z,99354.69
2023-05-24T14:01:57.614Z,99349.34
2023-05-24T14:05:21.624Z,99344.00
2023-05-24T14:08:28.511Z,99350.56
2023-05-24T14:11:32.845Z,99347.03
2023-05-24T14:14:59.271Z,99342.50
2023-05-24T14:18:08.239Z,99335.38
2023-05-24T14:21:13.680Z,99340.81
2023-05-24T14:24:17.271Z,99341.56
2023-05-24T14:27:21.277Z,99341.53
2023-05-24T14:30:24.743Z,99339.22
2023-05-24T14:33:28.227Z,99343.94
2023-05-24T14:36:33.823Z,99346.63
2023-05-24T14:42:40.946Z,99340.94
2023-05-24T14:45:44.938Z,99350.53
2023-05-24T14:48:48.885Z,99348.75
2023-05-24T14:51:53.954Z,99352.00
2023-05-24T14:54:58.115Z,99362.09
2023-05-24T14:58:01.762Z,99359.19
2023-05-24T15:01:05.289Z,99363.09
2023-05-24T15:04:09.325Z,99353.22
2023-05-24T15:07:14.344Z,99350.06
2023-05-24T15:10:18.195Z,99359.06
2023-05-24T15:13:23.162Z,99351.28
2023-05-24T15:16:27.011Z,99361.63
2023-05-24T15:19:30.751Z,99356.41
2023-05-24T15:22:36.047Z,99356.25
2023-05-24T15:25:41.285Z,99358.91
2023-05-24T15:28:45.168Z,99366.72
2023-05-24T15:31:49.158Z,99371.69
2023-05-24T15:34:53.079Z,99365.00
2023-05-24T15:37:58.935Z,99370.47
2023-05-24T15:41:03.969Z,99361.75
2023-05-24T15:44:09.050Z,99367.22
2023-05-24T15:47:13.101Z,99362.34
2023-05-24T15:50:20.215Z,99371.44
2023-05-24T15:53:28.688Z,99369.88
2023-05-24T15:56:32.112Z,99372.53
2023-05-24T15:59:38.881Z,99369.88
2023-05-24T16:02:42.653Z,99368.63
2023-05-24T16:05:48.841Z,99378.84
2023-05-24T16:08:54.073Z,99374.34
2023-05-24T16:11:57.888Z,99374.50
2023-05-24T16:15:02.046Z,99380.53
2023-05-24T16:18:07.227Z,99386.84
2023-05-24T16:21:11.125Z,99388.69
2023-05-24T16:24:16.165Z,99383.00
2023-05-24T16:27:20.165Z,99383.75
2023-05-24T16:30:24.074Z,99388.25
2023-05-24T16:33:28.058Z,99388.38
2023-05-24T16:36:31.937Z,99392.41
2023-05-24T16:39:38.524Z,99393.84
2023-05-24T16:42:42.265Z,99403.16
2023-05-24T16:45:46.408Z,99408.16
2023-05-24T16:48:50.105Z,99403.34
2023-05-24T16:51:57.191Z,99404.19
2023-05-24T16:55:02.237Z,99408.25
2023-05-24T16:58:06.111Z,99409.00
2023-05-24T17:01:10.082Z,99399.13
2023-05-24T17:04:14.365Z,99412.25
2023-05-24T17:07:17.951Z,99414.28
2023-05-24T17:10:23.572Z,99421.72
2023-05-24T17:13:28.635Z,99428.25
2023-05-24T17:16:32.309Z,99429.28
2023-05-24T17:19:36.748Z,99427.28
2023-05-24T17:22:40.289Z,99424.72
2023-05-24T17:25:46.348Z,99430.13
2023-05-24T17:28:50.117Z,99437.19
2023-05-24T17:31:53.817Z,99433.00
2023-05-24T17:34:58.468Z,99447.34
2023-05-24T17:38:08.872Z,99454.53
2023-05-24T17:41:47.313Z,99456.97
2023-05-24T17:44:51.551Z,99458.13
2023-05-24T17:47:56.531Z,99455.00
2023-05-24T17:51:01.037Z,99470.00
2023-05-24T17:54:05.099Z,99461.34
2023-05-24T17:57:10.361Z,99465.78
2023-05-24T18:00:15.089Z,99473.22
2023-05-24T18:03:26.414Z,99473.22
2023-05-24T18:06:30.072Z,99465.53
2023-05-24T18:09:33.621Z,99467.22
2023-05-24T18:12:39.108Z,99465.78
2023-05-24T18:15:45.180Z,99469.34
2023-05-24T18:18:49.040Z,99470.28
2023-05-24T18:21:53.527Z,99481.63
2023-05-24T18:24:58.756Z,99485.91
2023-05-24T18:28:04.070Z,99485.00
2023-05-24T18:31:10.485Z,99479.00
2023-05-24T18:34:13.978Z,99490.44
2023-05-24T18:37:17.851Z,99500.81
2023-05-24T18:40:23.569Z,99499.50
2023-05-24T18:43:28.589Z,99506.97
2023-05-24T18:46:33.392Z,99508.72
2023-05-24T18:49:37.463Z,99501.22
2023-05-24T18:52:41.735Z,99512.34
2023-05-24T18:55:47.152Z,99514.47
2023-05-24T18:58:53.959Z,99510.75
2023-05-24T19:01:58.059Z,99519.06
2023-05-24T19:05:01.531Z,99517.91
2023-05-24T19:08:05.320Z,99520.72
2023-05-24T19:11:11.184Z,99523.06
2023-05-24T19:14:20.218Z,99519.91
2023-05-24T19:17:27.066Z,99531.50
2023-05-24T19:20:30.910Z,99530.31
2023-05-24T19:23:34.761Z,99524.78
2023-05-24T19:26:38.830Z,99520.78
2023-05-24T19:29:43.686Z,99523.38
2023-05-24T19:32:47.415Z,99528.72
2023-05-24T19:35:51.757Z,99533.44
2023-05-24T19:38:56.103Z,99530.66
2023-05-24T19:41:59.867Z,99526.59
2023-05-24T19:45:05.197Z,99534.91
2023-05-24T19:48:10.113Z,99540.16
2023-05-24T19:51:15.823Z,99542.41
2023-05-24T19:54:19.721Z,99548.78
2023-05-24T19:57:23.253Z,99549.44
2023-05-24T20:00:28.519Z,99541.13
2023-05-24T20:03:32.320Z,99553.28
2023-05-24T20:06:38.867Z,99536.66
2023-05-24T20:09:42.972Z,99546.66
2023-05-24T20:12:46.866Z,99540.94
2023-05-24T20:15:55.031Z,99534.28
2023-05-24T20:18:59.713Z,99546.13
2023-05-24T20:22:03.728Z,99540.16
2023-05-24T20:25:09.087Z,99541.53
2023-05-24T20:28:29.035Z,99543.38
2023-05-24T20:31:38.004Z,99542.94
2023-05-24T20:34:41.754Z,99536.56
2023-05-24T20:37:45.541Z,99539.41
2023-05-24T20:40:49.103Z,99542.16
2023-05-24T20:43:53.057Z,99540.16
2023-05-24T20:46:58.738Z,99546.78
2023-05-24T20:50:02.455Z,99553.28
2023-05-24T20:53:06.108Z,99561.41
2023-05-24T20:56:13.642Z,99555.41
2023-05-24T20:59:18.357Z,99554.34
2023-05-24T21:02:23.737Z,99554.78
2023-05-24T21:05:27.656Z,99548.72
2023-05-24T21:08:32.074Z,99542.84
2023-05-24T21:11:36.636Z,99549.22
2023-05-24T21:14:40.938Z,99550.50
2023-05-24T21:17:46.053Z,99555.09
2023-05-24T21:20:50.172Z,99564.81
2023-05-24T21:23:53.739Z,99564.56
2023-05-24T21:26:57.248Z,99570.47
2023-05-24T21:30:01.268Z,99564.72
2023-05-24T21:33:07.744Z,99569.38
2023-05-24T21:36:11.747Z,99564.06
2023-05-24T21:39:15.607Z,99566.53
2023-05-24T21:42:19.824Z,99565.44
2023-05-24T21:45:23.419Z,99568.75
2023-05-24T21:48:28.441Z,99565.44
2023-05-24T21:51:32.150Z,99557.53
2023-05-24T21:54:35.604Z,99566.50
2023-05-24T21:57:39.095Z,99568.41
2023-05-24T22:00:42.885Z,99573.31
2023-05-24T22:03:48.127Z,99570.22
2023-05-24T22:06:53.084Z,99571.94
2023-05-24T22:09:56.762Z,99573.19
2023-05-24T22:13:00.456Z,99570.19
2023-05-24T22:16:04.169Z,99575.78
2023-05-24T22:19:14.887Z,99582.69
2023-05-24T22:22:20.487Z,99586.63
2023-05-24T22:25:24.013Z,99587.47
2023-05-24T22:28:27.568Z,99599.16
2023-05-24T22:31:33.554Z,99594.47
2023-05-24T22:34:38.814Z,99603.47
2023-05-24T22:37:43.237Z,99603.06
2023-05-24T22:40:47.446Z,99594.63
2023-05-24T22:43:51.486Z,99596.16
2023-05-24T22:46:57.255Z,99589.72
2023-05-24T22:50:02.749Z,99597.03
2023-05-24T22:53:09.374Z,99599.91
2023-05-24T22:56:12.958Z,99598.44
2023-05-24T22:59:16.561Z,99591.88
2023-05-24T23:02:20.147Z,99597.69
2023-05-24T23:05:25.468Z,99592.66
2023-05-24T23:08:29.110Z,99596.19
2023-05-24T23:11:33.053Z,99600.50
2023-05-24T23:14:38.630Z,99606.31
2023-05-24T23:17:42.137Z,99604.91
2023-05-24T23:20:47.056Z,99601.56
2023-05-24T23:23:53.684Z,99599.47
2023-05-24T23:26:58.273Z,99595.19
2023-05-24T23:30:01.904Z,99599.28
2023-05-24T23:33:06.048Z,99599.50
2023-05-24T23:36:11.376Z,99597.22
2023-05-24T23:39:15.561Z,99606.63
2023-05-24T23:42:19.564Z,99601.78
2023-05-24T23:45:36.520Z,99610.13
2023-05-24T23:48:42.528Z,99612.25
2023-05-24T23:51:49.056Z,99615.84
2023-05-24T23:54:52.967Z,99619.25
2023-05-24T23:57:57.047Z,99623.50
